Аэропорт: Чертовицкое. Воронеж

ICAO: UUOO

METAR:
2020-10-19 15:30:00
UUOO 191530Z 24002MPS CAVOK 08/03 Q1016 R30/190060 NOSIG RMK QFE748
METAR:
2020-10-19 14:00:00
TAF UUOO 191400Z 1915/1924 26003MPS 9999 BKN020CB